createdAt,value
2023-04-25T00:00:16.695Z,99940.59
2023-04-25T00:02:47.647Z,99935.28
2023-04-25T00:05:18.556Z,99934.19
2023-04-25T00:07:49.146Z,99928.94
2023-04-25T00:10:19.835Z,99930.97
2023-04-25T00:12:50.478Z,99931.59
2023-04-25T00:15:23.512Z,99926.84
2023-04-25T00:17:54.106Z,99922.78
2023-04-25T00:20:24.599Z,99921.44
2023-04-25T00:22:55.211Z,99926.81
2023-04-25T00:25:25.333Z,99923.09
2023-04-25T00:27:55.635Z,99924.09
2023-04-25T00:30:28.350Z,99923.25
2023-04-25T00:32:58.513Z,99934.50
2023-04-25T00:35:29.916Z,99919.63
2023-04-25T00:38:00.135Z,99936.59
2023-04-25T00:40:30.492Z,99923.84
2023-04-25T00:43:00.773Z,99926.66
2023-04-25T00:45:34.171Z,99923.38
2023-04-25T00:48:04.675Z,99927.97
2023-04-25T00:50:36.353Z,99928.81
2023-04-25T00:53:07.389Z,99919.50
2023-04-25T00:55:37.699Z,99919.31
2023-04-25T00:58:07.800Z,99931.50
2023-04-25T01:00:41.353Z,99920.13
2023-04-25T01:03:11.557Z,99929.09
2023-04-25T01:05:43.515Z,99921.34
2023-04-25T01:08:16.259Z,99919.50
2023-04-25T01:10:46.672Z,99916.91
2023-04-25T01:13:16.788Z,99920.69
2023-04-25T01:15:50.368Z,99921.16
2023-04-25T01:18:21.645Z,99916.16
2023-04-25T01:20:55.591Z,99916.00
2023-04-25T01:23:29.604Z,99910.00
2023-04-25T01:25:59.954Z,99920.94
2023-04-25T01:28:31.294Z,99918.72
2023-04-25T01:31:02.936Z,99915.63
2023-04-25T01:33:33.416Z,99907.31
2023-04-25T01:36:04.441Z,99919.19
2023-04-25T01:38:37.292Z,99912.47
2023-04-25T01:41:07.969Z,99914.75
2023-04-25T01:43:38.155Z,99919.59
2023-04-25T01:46:08.772Z,99918.47
2023-04-25T01:48:39.120Z,99925.28
2023-04-25T01:51:12.709Z,99920.81
2023-04-25T01:53:46.695Z,99918.94
2023-04-25T01:56:22.612Z,99920.53
2023-04-25T01:58:52.907Z,99923.22
2023-04-25T02:01:23.086Z,99918.53
2023-04-25T02:04:10.609Z,99925.22
2023-04-25T02:06:42.797Z,99921.03
2023-04-25T02:09:15.612Z,99923.41
2023-04-25T02:11:58.533Z,99927.88
2023-04-25T02:14:42.498Z,99926.28
2023-04-25T02:17:22.818Z,99934.38
2023-04-25T02:19:54.754Z,99928.72
2023-04-25T02:22:24.831Z,99935.97
2023-04-25T02:25:17.114Z,99930.66
2023-04-25T02:27:47.811Z,99935.78
2023-04-25T02:30:18.549Z,99925.84
2023-04-25T02:32:51.859Z,99929.78
2023-04-25T02:35:22.592Z,99929.31
2023-04-25T02:37:57.642Z,99919.47
2023-04-25T02:40:30.446Z,99922.97
2023-04-25T02:43:00.628Z,99930.72
2023-04-25T02:45:30.720Z,99923.47
2023-04-25T02:48:00.874Z,99924.28
2023-04-25T02:50:31.074Z,99917.47
2023-04-25T02:53:01.146Z,99923.72
2023-04-25T02:55:40.682Z,99930.06
2023-04-25T02:58:11.415Z,99920.47
2023-04-25T03:00:50.165Z,99919.75
2023-04-25T03:03:23.025Z,99920.81
2023-04-25T03:05:54.574Z,99921.28
2023-04-25T03:08:33.547Z,99922.81
2023-04-25T03:11:07.339Z,99924.75
2023-04-25T03:13:38.671Z,99923.75
2023-04-25T03:16:12.729Z,99917.56
2023-04-25T03:18:45.838Z,99924.81
2023-04-25T03:21:16.144Z,99918.53
2023-04-25T03:23:46.750Z,99921.34
2023-04-25T03:26:19.513Z,99932.81
2023-04-25T04:04:29.065Z,99940.94
2023-04-25T04:06:59.868Z,99935.91
2023-04-25T04:09:32.964Z,99941.25
2023-04-25T04:12:07.361Z,99944.28
2023-04-25T04:14:40.005Z,99947.09
2023-04-25T04:17:17.653Z,99953.22
2023-04-25T04:19:50.682Z,99958.53
2023-04-25T04:22:27.543Z,99957.47
2023-04-25T04:25:04.226Z,99953.44
2023-04-25T04:27:55.925Z,99958.88
2023-04-25T04:30:47.138Z,99959.88
2023-04-25T04:33:19.109Z,99960.88
2023-04-25T04:35:53.434Z,99959.56
2023-04-25T04:38:23.972Z,99962.75
2023-04-25T04:40:57.085Z,99965.81
2023-04-25T04:43:40.681Z,99969.72
2023-04-25T04:46:43.381Z,99965.88
2023-04-25T04:49:36.407Z,99972.22
2023-04-25T04:52:44.278Z,99976.06
2023-04-25T04:55:39.845Z,99971.94
2023-04-25T04:58:37.704Z,99969.94
2023-04-25T05:01:26.288Z,99972.03
2023-04-25T05:04:20.367Z,99971.94
2023-04-25T05:07:02.618Z,99979.66
2023-04-25T05:09:41.380Z,99972.06
2023-04-25T05:12:25.892Z,99964.44
2023-04-25T05:15:19.268Z,99974.47
2023-04-25T05:18:19.086Z,99979.25
2023-04-25T05:21:24.929Z,99976.88
2023-04-25T05:24:16.602Z,99993.56
2023-04-25T05:27:13.011Z,99987.06
2023-04-25T05:30:09.148Z,99988.06
2023-04-25T05:32:51.634Z,99980.84
2023-04-25T05:35:22.516Z,99987.25
2023-04-25T05:37:54.321Z,99985.94
2023-04-25T05:40:34.873Z,99986.19
2023-04-25T05:43:39.017Z,99988.38
2023-04-25T05:46:25.620Z,99996.81
2023-04-25T05:49:18.155Z,99990.31
2023-04-25T05:52:12.633Z,99996.44
2023-04-25T05:55:05.822Z,99999.63
2023-04-25T05:57:36.254Z,100001.22
2023-04-25T06:00:11.120Z,99998.31
2023-04-25T06:02:44.546Z,100008.53
2023-04-25T06:05:18.322Z,100003.41
2023-04-25T06:07:52.109Z,100010.72
2023-04-25T06:10:23.946Z,100013.03
2023-04-25T06:12:53.991Z,100015.34
2023-04-25T06:15:29.672Z,100018.13
2023-04-25T06:18:15.242Z,100015.50
2023-04-25T06:20:46.649Z,100010.84
2023-04-25T06:23:17.109Z,100014.34
2023-04-25T06:25:58.237Z,100019.66
2023-04-25T06:28:29.787Z,100014.25
2023-04-25T06:31:04.344Z,100012.97
2023-04-25T06:33:36.897Z,100013.06
2023-04-25T06:36:16.310Z,100019.16
2023-04-25T06:38:48.875Z,100017.19
2023-04-25T06:41:19.205Z,100016.50
2023-04-25T06:43:49.331Z,100015.06
2023-04-25T06:46:24.475Z,100018.44
2023-04-25T06:48:54.626Z,100014.56
2023-04-25T06:51:25.616Z,100013.66
2023-04-25T06:53:58.010Z,100020.31
2023-04-25T06:56:40.512Z,100012.63
2023-04-25T06:59:15.710Z,100014.13
2023-04-25T07:01:50.760Z,100013.91
2023-04-25T07:04:28.896Z,100009.34
2023-04-25T07:07:02.292Z,100020.78
2023-04-25T07:09:42.944Z,100012.09
2023-04-25T07:12:13.009Z,100023.34
2023-04-25T07:14:43.260Z,100021.78
2023-04-25T07:17:16.691Z,100025.28
2023-04-25T07:19:47.374Z,100033.25
2023-04-25T07:22:24.830Z,100033.78
2023-04-25T07:24:54.957Z,100037.88
2023-04-25T07:27:28.667Z,100038.56
2023-04-25T07:30:04.920Z,100039.59
2023-04-25T07:32:38.872Z,100045.16
2023-04-25T07:35:11.045Z,100051.06
2023-04-25T07:37:44.552Z,100053.53
2023-04-25T07:40:21.501Z,100062.69
2023-04-25T07:42:58.938Z,100060.09
2023-04-25T07:45:57.951Z,100059.13
2023-04-25T07:48:32.465Z,100061.88
2023-04-25T07:51:06.356Z,100067.44
2023-04-25T07:53:39.475Z,100062.63
2023-04-25T07:56:14.846Z,100058.16
2023-04-25T07:58:47.515Z,100061.84
2023-04-25T08:01:21.519Z,100070.78
2023-04-25T08:03:59.886Z,100074.53
2023-04-25T08:06:39.596Z,100085.66
2023-04-25T08:09:19.592Z,100087.84
2023-04-25T08:11:51.755Z,100089.31
2023-04-25T08:14:26.109Z,100081.34
2023-04-25T08:16:56.596Z,100088.41
2023-04-25T08:19:30.777Z,100088.50
2023-04-25T08:22:01.546Z,100089.66
2023-04-25T08:24:40.449Z,100099.75
2023-04-25T08:27:12.852Z,100106.41
2023-04-25T08:29:45.787Z,100097.63
2023-04-25T08:32:16.400Z,100104.06
2023-04-25T08:35:01.357Z,100101.56
2023-04-25T08:37:31.638Z,100117.44
2023-04-25T08:40:08.340Z,100115.78
2023-04-25T08:42:49.809Z,100124.09
2023-04-25T08:45:19.965Z,100125.56
2023-04-25T08:47:52.433Z,100127.94
2023-04-25T08:50:27.543Z,100130.25
2023-04-25T08:52:58.531Z,100129.06
2023-04-25T08:55:30.785Z,100133.59
2023-04-25T08:58:04.646Z,100138.13
2023-04-25T09:00:34.916Z,100131.16
2023-04-25T09:03:05.974Z,100142.13
2023-04-25T09:05:40.278Z,100145.56
2023-04-25T09:08:22.156Z,100145.84
2023-04-25T09:10:55.753Z,100152.69
2023-04-25T09:13:30.336Z,100155.28
2023-04-25T09:16:22.826Z,100146.97
2023-04-25T09:19:38.881Z,100159.88
2023-04-25T09:22:24.382Z,100162.44
2023-04-25T09:24:54.552Z,100166.13
2023-04-25T09:27:28.446Z,100162.56
2023-04-25T09:30:20.251Z,100170.22
2023-04-25T09:33:09.519Z,100162.16
2023-04-25T09:35:42.251Z,100171.22
2023-04-25T09:38:20.241Z,100167.91
2023-04-25T09:40:53.429Z,100165.97
2023-04-25T09:43:38.844Z,100183.97
2023-04-25T09:46:12.947Z,100179.91
2023-04-25T09:48:55.144Z,100182.13
2023-04-25T09:51:39.215Z,100183.16
2023-04-25T09:54:13.796Z,100180.72
2023-04-25T09:56:52.080Z,100180.09
2023-04-25T09:59:24.602Z,100186.03
2023-04-25T10:01:58.864Z,100177.44
2023-04-25T10:04:39.028Z,100180.75
2023-04-25T10:07:15.978Z,100175.44
2023-04-25T10:09:53.626Z,100179.19
2023-04-25T10:12:24.075Z,100186.41
2023-04-25T10:14:55.032Z,100193.09
2023-04-25T10:17:25.355Z,100192.31
2023-04-25T10:19:56.569Z,100194.66
2023-04-25T10:22:34.400Z,100197.59
2023-04-25T10:25:09.497Z,100202.25
2023-04-25T10:27:39.966Z,100181.31
2023-04-25T10:30:15.706Z,100193.59
2023-04-25T10:32:51.916Z,100203.34
2023-04-25T10:35:27.794Z,100199.22
2023-04-25T10:38:01.409Z,100205.22
2023-04-25T10:40:34.651Z,100206.84
2023-04-25T10:43:34.651Z,100205.75
2023-04-25T10:46:06.958Z,100200.41
2023-04-25T10:48:53.386Z,100216.84
2023-04-25T10:51:26.703Z,100211.91
2023-04-25T10:54:04.275Z,100210.31
2023-04-25T10:56:40.924Z,100217.88
2023-04-25T10:59:12.701Z,100215.97
2023-04-25T11:01:45.305Z,100216.66
2023-04-25T11:04:26.008Z,100224.41
2023-04-25T11:07:07.988Z,100220.91
2023-04-25T11:09:39.207Z,100225.06
2023-04-25T11:12:14.326Z,100227.19
2023-04-25T11:14:44.837Z,100239.56
2023-04-25T11:17:15.007Z,100232.34
2023-04-25T11:19:45.092Z,100240.59
2023-04-25T11:22:16.287Z,100239.75
2023-04-25T11:24:46.526Z,100237.47
2023-04-25T11:27:19.288Z,100245.75
2023-04-25T11:29:50.482Z,100248.56
2023-04-25T11:32:21.708Z,100257.09
2023-04-25T11:34:51.862Z,100251.31
2023-04-25T11:37:23.451Z,100259.69
2023-04-25T11:39:53.585Z,100263.41
2023-04-25T11:42:26.497Z,100264.16
2023-04-25T11:44:56.835Z,100262.78
2023-04-25T11:47:32.746Z,100271.03
2023-04-25T11:50:04.133Z,100278.53
2023-04-25T11:52:42.058Z,100271.53
2023-04-25T11:55:14.195Z,100282.88
2023-04-25T11:57:47.996Z,100284.72
2023-04-25T12:00:21.311Z,100285.78
2023-04-25T12:02:55.398Z,100280.75
2023-04-25T12:05:32.595Z,100279.59
2023-04-25T12:08:16.862Z,100288.97
2023-04-25T12:10:53.178Z,100285.97
2023-04-25T12:13:30.147Z,100283.00
2023-04-25T12:16:00.932Z,100275.66
2023-04-25T12:18:31.504Z,100287.47
2023-04-25T12:21:02.369Z,100286.44
2023-04-25T12:23:33.784Z,100300.47
2023-04-25T12:26:03.991Z,100289.78
2023-04-25T12:28:37.089Z,100293.50
2023-04-25T12:31:08.621Z,100296.16
2023-04-25T12:33:40.588Z,100290.34
2023-04-25T12:36:14.237Z,100294.69
2023-04-25T12:38:45.872Z,100301.41
2023-04-25T12:41:16.024Z,100296.34
2023-04-25T12:43:48.805Z,100288.97
2023-04-25T12:46:18.938Z,100293.03
2023-04-25T12:48:49.073Z,100286.53
2023-04-25T12:51:19.572Z,100298.78
2023-04-25T12:53:49.894Z,100292.03
2023-04-25T12:56:21.467Z,100291.06
2023-04-25T12:58:56.376Z,100289.75
2023-04-25T13:01:27.617Z,100296.16
2023-04-25T13:03:58.080Z,100294.69
2023-04-25T13:06:28.362Z,100297.78
2023-04-25T13:08:58.521Z,100306.97
2023-04-25T13:14:21.295Z,100302.44
2023-04-25T13:16:51.619Z,100314.22
2023-04-25T13:19:21.903Z,100308.47
2023-04-25T13:21:52.163Z,100301.91
2023-04-25T13:24:22.536Z,100296.53
2023-04-25T13:26:54.979Z,100293.75
2023-04-25T13:29:58.763Z,100299.34
2023-04-25T13:32:32.879Z,100317.25
2023-04-25T13:35:06.565Z,100300.84
2023-04-25T13:37:38.007Z,100304.81
2023-04-25T13:40:13.398Z,100304.34
2023-04-25T13:42:47.008Z,100318.16
2023-04-25T13:45:19.954Z,100315.28
2023-04-25T13:47:50.377Z,100327.38
2023-04-25T13:50:21.680Z,100323.03
2023-04-25T13:52:51.894Z,100325.88
2023-04-25T13:55:22.151Z,100335.31
2023-04-25T13:57:52.268Z,100343.41
2023-04-25T14:00:25.345Z,100336.16
2023-04-25T14:02:56.990Z,100347.47
2023-04-25T14:05:27.237Z,100351.59
2023-04-25T14:07:57.306Z,100353.69
2023-04-25T14:10:27.544Z,100349.75
2023-04-25T14:12:57.942Z,100337.22
2023-04-25T14:15:31.342Z,100348.53
2023-04-25T14:18:09.115Z,100343.84
2023-04-25T14:20:46.993Z,100346.59
2023-04-25T14:23:18.704Z,100345.53
2023-04-25T14:25:58.456Z,100357.94
2023-04-25T14:28:29.946Z,100351.44
2023-04-25T14:31:02.703Z,100349.72
2023-04-25T14:33:32.887Z,100353.31
2023-04-25T14:36:03.553Z,100353.50
2023-04-25T14:38:33.855Z,100354.72
2023-04-25T14:41:04.190Z,100356.09
2023-04-25T14:43:34.239Z,100352.63
2023-04-25T14:46:14.553Z,100354.47
2023-04-25T14:48:50.487Z,100365.56
2023-04-25T14:51:23.649Z,100357.44
2023-04-25T14:53:54.014Z,100358.34
2023-04-25T14:56:24.362Z,100370.31
2023-04-25T14:58:54.701Z,100365.63
2023-04-25T15:01:39.127Z,100371.47
2023-04-25T15:04:19.271Z,100376.03
2023-04-25T15:06:49.514Z,100376.84
2023-04-25T15:09:20.592Z,100375.28
2023-04-25T15:11:50.957Z,100373.69
2023-04-25T15:14:21.493Z,100385.63
2023-04-25T15:16:54.333Z,100383.78
2023-04-25T15:19:24.807Z,100386.09
2023-04-25T15:21:55.210Z,100394.22
2023-04-25T15:24:25.545Z,100395.06
2023-04-25T15:26:56.024Z,100388.97
2023-04-25T15:29:27.346Z,100382.47
2023-04-25T15:32:00.265Z,100390.63
2023-04-25T15:34:30.658Z,100387.50
2023-04-25T15:37:08.317Z,100398.16
2023-04-25T15:39:38.609Z,100398.78
2023-04-25T15:42:08.756Z,100378.69
2023-04-25T15:44:39.049Z,100388.59
2023-04-25T15:47:12.005Z,100389.59
2023-04-25T15:49:42.014Z,100394.75
2023-04-25T15:52:12.347Z,100393.00
2023-04-25T15:54:42.521Z,100389.44
2023-04-25T15:57:13.281Z,100401.28
2023-04-25T15:59:43.322Z,100403.09
2023-04-25T16:02:16.632Z,100393.75
2023-04-25T16:04:49.269Z,100401.91
2023-04-25T16:07:19.490Z,100396.97
2023-04-25T16:09:49.760Z,100394.56
2023-04-25T16:12:19.942Z,100393.09
2023-04-25T16:14:50.390Z,100402.47
2023-04-25T16:17:23.161Z,100393.81
2023-04-25T16:19:55.263Z,100405.59
2023-04-25T16:22:25.437Z,100403.19
2023-04-25T16:24:55.787Z,100401.28
2023-04-25T16:27:25.918Z,100399.00
2023-04-25T16:29:55.969Z,100401.91
2023-04-25T16:32:28.780Z,100397.97
2023-04-25T16:34:59.171Z,100402.19
2023-04-25T16:37:29.714Z,100398.03
2023-04-25T16:39:59.829Z,100403.94
2023-04-25T16:42:29.989Z,100407.59
2023-04-25T16:45:00.335Z,100411.88
2023-04-25T16:47:33.153Z,100411.84
2023-04-25T16:50:03.926Z,100420.94
2023-04-25T16:52:34.135Z,100422.78
2023-04-25T16:55:04.349Z,100424.19
2023-04-25T16:57:34.477Z,100423.94
2023-04-25T17:00:05.310Z,100428.31
2023-04-25T17:02:38.796Z,100425.66
2023-04-25T17:05:10.705Z,100429.44
2023-04-25T17:07:41.951Z,100439.19
2023-04-25T17:10:13.377Z,100442.28
2023-04-25T17:12:43.553Z,100431.75
2023-04-25T17:15:14.331Z,100425.44
2023-04-25T17:17:47.025Z,100436.59
2023-04-25T17:20:20.304Z,100434.31
2023-04-25T17:22:50.388Z,100437.06
2023-04-25T17:25:20.557Z,100443.56
2023-04-25T17:27:50.867Z,100434.19
2023-04-25T17:30:21.079Z,100434.94
2023-04-25T17:32:53.909Z,100434.81
2023-04-25T17:35:24.790Z,100439.13
2023-04-25T17:37:55.042Z,100442.25
2023-04-25T17:40:26.408Z,100447.00
2023-04-25T17:42:56.919Z,100444.38
2023-04-25T17:45:34.796Z,100446.03
2023-04-25T17:48:08.022Z,100457.47
2023-04-25T17:50:38.318Z,100456.31
2023-04-25T17:53:08.999Z,100461.63
2023-04-25T17:55:40.486Z,100451.53
2023-04-25T17:58:11.434Z,100451.22
2023-04-25T18:00:41.986Z,100465.16
2023-04-25T18:03:14.825Z,100471.97
2023-04-25T18:05:45.004Z,100460.69
2023-04-25T18:08:15.282Z,100469.97
2023-04-25T18:10:45.578Z,100470.31
2023-04-25T18:13:15.949Z,100469.66
2023-04-25T18:15:46.046Z,100474.97
2023-04-25T18:18:20.598Z,100475.13
2023-04-25T18:21:01.102Z,100482.72
2023-04-25T18:23:32.553Z,100482.41
2023-04-25T18:26:02.797Z,100486.53
2023-04-25T18:28:34.401Z,100483.88
2023-04-25T18:31:04.659Z,100486.69
2023-04-25T18:33:37.519Z,100488.53
2023-04-25T18:36:08.434Z,100497.13
2023-04-25T18:38:38.536Z,100495.81
2023-04-25T18:41:27.472Z,100493.47
2023-04-25T18:44:05.561Z,100511.22
2023-04-25T18:46:43.713Z,100514.53
2023-04-25T18:49:16.511Z,100509.06
2023-04-25T18:51:47.507Z,100514.69
2023-04-25T18:54:17.682Z,100519.81
2023-04-25T18:56:47.995Z,100519.31
2023-04-25T18:59:18.383Z,100522.47
2023-04-25T19:01:50.136Z,100523.63
2023-04-25T19:04:23.045Z,100535.22
2023-04-25T19:06:54.387Z,100538.38
2023-04-25T19:09:25.007Z,100547.00
2023-04-25T19:11:55.520Z,100544.19
2023-04-25T19:14:26.177Z,100539.53
2023-04-25T19:16:59.362Z,100549.31
2023-04-25T19:19:32.710Z,100542.53
2023-04-25T19:22:02.865Z,100537.88
2023-04-25T19:24:34.454Z,100540.97
2023-04-25T19:27:04.869Z,100543.13
2023-04-25T19:29:35.504Z,100556.53
2023-04-25T19:32:06.258Z,100551.31
2023-04-25T19:34:39.176Z,100559.75
2023-04-25T19:37:09.556Z,100561.06
2023-04-25T19:39:39.870Z,100549.63
2023-04-25T19:42:10.031Z,100556.56
2023-04-25T19:44:40.357Z,100565.78
2023-04-25T19:47:11.467Z,100564.41
2023-04-25T19:49:44.181Z,100566.03
2023-04-25T19:52:15.221Z,100567.69
2023-04-25T19:54:50.361Z,100566.69
2023-04-25T19:57:20.418Z,100571.38
2023-04-25T19:59:50.558Z,100571.03
2023-04-25T20:02:21.497Z,100573.38
2023-04-25T20:04:54.428Z,100569.69
2023-04-25T20:07:24.863Z,100577.13
2023-04-25T20:09:55.795Z,100572.78
2023-04-25T20:12:26.264Z,100572.78
2023-04-25T20:14:56.940Z,100570.13
2023-04-25T20:17:29.462Z,100577.25
2023-04-25T20:20:06.627Z,100585.34
2023-04-25T20:22:39.085Z,100575.91
2023-04-25T20:25:11.406Z,100577.31
2023-04-25T20:27:41.673Z,100581.22
2023-04-25T20:30:24.877Z,100578.56
2023-04-25T20:32:57.910Z,100581.38
2023-04-25T20:35:30.980Z,100591.44
2023-04-25T20:38:01.332Z,100580.34
2023-04-25T20:40:34.858Z,100589.47
2023-04-25T20:43:06.424Z,100595.22
2023-04-25T20:45:37.639Z,100588.72
2023-04-25T20:48:07.908Z,100586.25
2023-04-25T20:50:41.346Z,100588.84
2023-04-25T20:53:15.212Z,100584.81
2023-04-25T20:55:45.531Z,100589.81
2023-04-25T20:58:16.400Z,100590.66
2023-04-25T21:00:47.783Z,100593.13
2023-04-25T21:03:18.056Z,100592.81
2023-04-25T21:05:51.748Z,100597.03
2023-04-25T21:08:21.856Z,100590.03
2023-04-25T21:10:52.098Z,100597.81
2023-04-25T21:13:22.337Z,100602.78
2023-04-25T21:15:52.499Z,100596.66
2023-04-25T21:18:22.831Z,100597.06
2023-04-25T21:20:55.664Z,100609.22
2023-04-25T21:23:28.488Z,100605.44
2023-04-25T21:25:58.524Z,100600.47
2023-04-25T21:28:28.941Z,100606.75
2023-04-25T21:30:59.535Z,100607.03
2023-04-25T21:33:29.879Z,100603.91
2023-04-25T21:36:02.642Z,100610.78
2023-04-25T21:38:32.785Z,100611.47
2023-04-25T21:41:02.921Z,100620.13
2023-04-25T21:43:43.230Z,100609.84
2023-04-25T21:48:48.109Z,100613.91
2023-04-25T21:51:22.933Z,100611.56
2023-04-25T21:53:53.316Z,100621.28
2023-04-25T21:56:23.961Z,100618.94
2023-04-25T21:58:54.414Z,100618.28
2023-04-25T22:01:24.815Z,100628.56
2023-04-25T22:03:55.240Z,100629.44
2023-04-25T22:06:28.726Z,100627.25
2023-04-25T22:08:58.922Z,100641.03
2023-04-25T22:11:29.150Z,100639.22
2023-04-25T22:13:59.440Z,100642.25
2023-04-25T22:16:29.661Z,100649.66
2023-04-25T22:19:02.886Z,100650.78
2023-04-25T22:21:35.823Z,100649.94
2023-04-25T22:24:06.467Z,100648.72
2023-04-25T22:26:36.496Z,100661.47
2023-04-25T22:29:07.179Z,100662.72
2023-04-25T22:31:37.674Z,100663.69
2023-04-25T22:34:08.054Z,100661.47
2023-04-25T22:36:40.731Z,100663.72
2023-04-25T22:39:11.480Z,100666.09
2023-04-25T22:41:41.966Z,100661.91
2023-04-25T22:44:12.116Z,100662.31
2023-04-25T22:46:42.896Z,100663.19
2023-04-25T22:49:12.952Z,100669.31
2023-04-25T22:51:45.894Z,100663.91
2023-04-25T22:54:16.125Z,100671.81
2023-04-25T22:56:46.242Z,100672.38
2023-04-25T22:59:16.469Z,100673.78
2023-04-25T23:01:46.746Z,100684.19
2023-04-25T23:04:21.067Z,100682.97
2023-04-25T23:06:54.251Z,100676.59
2023-04-25T23:09:24.318Z,100682.69
2023-04-25T23:11:54.982Z,100682.28
2023-04-25T23:14:25.209Z,100675.59
2023-04-25T23:16:55.834Z,100680.88
2023-04-25T23:19:26.755Z,100686.88
2023-04-25T23:22:00.191Z,100678.25
2023-04-25T23:24:31.184Z,100685.75
2023-04-25T23:27:02.038Z,100686.03
2023-04-25T23:29:33.406Z,100680.75
2023-04-25T23:32:04.491Z,100685.63
2023-04-25T23:34:34.780Z,100691.47
2023-04-25T23:37:07.476Z,100693.25
2023-04-25T23:39:37.565Z,100693.97
2023-04-25T23:42:08.181Z,100690.50
2023-04-25T23:44:38.328Z,100700.06
2023-04-25T23:47:08.453Z,100696.88
2023-04-25T23:49:38.540Z,100695.88
2023-04-25T23:52:11.967Z,100702.69
2023-04-25T23:54:42.636Z,100712.16
2023-04-25T23:57:12.822Z,100710.88
2023-04-25T23:59:44.903Z,100710.59
